sensor_id;sensor_type;location;lat;lon;timestamp;pressure;altitude;pressure_sealevel;temperature;humidity
62011;BME280;47967;51.756;10.174;2023-06-22T04:04:12;100055.06;;;20.80;77.75
62011;BME280;47967;51.756;10.174;2023-06-22T04:08:15;100050.44;;;20.91;77.55
62011;BME280;47967;51.756;10.174;2023-06-22T04:12:18;100043.66;;;20.99;77.60
62011;BME280;47967;51.756;10.174;2023-06-22T04:16:20;100045.88;;;21.02;77.88
62011;BME280;47967;51.756;10.174;2023-06-22T04:20:24;100041.78;;;21.04;77.74
62011;BME280;47967;51.756;10.174;2023-06-22T04:24:30;100031.97;;;21.14;76.93
62011;BME280;47967;51.756;10.174;2023-06-22T04:28:33;100031.66;;;21.05;77.12
62011;BME280;47967;51.756;10.174;2023-06-22T04:32:36;100032.97;;;20.97;77.46
62011;BME280;47967;51.756;10.174;2023-06-22T04:36:40;100025.81;;;20.96;77.19
62011;BME280;47967;51.756;10.174;2023-06-22T04:40:43;100020.06;;;20.98;77.11
62011;BME280;47967;51.756;10.174;2023-06-22T04:44:47;100029.47;;;21.07;76.89
62011;BME280;47967;51.756;10.174;2023-06-22T04:48:49;100013.88;;;21.18;76.71
62011;BME280;47967;51.756;10.174;2023-06-22T04:52:53;100010.31;;;21.17;76.86
62011;BME280;47967;51.756;10.174;2023-06-22T04:56:56;99999.44;;;21.33;76.54
62011;BME280;47967;51.756;10.174;2023-06-22T05:00:58;100004.97;;;21.43;75.87
62011;BME280;47967;51.756;10.174;2023-06-22T05:05:01;100010.19;;;21.44;76.35
62011;BME280;47967;51.756;10.174;2023-06-22T05:09:09;100007.75;;;21.48;76.39
62011;BME280;47967;51.756;10.174;2023-06-22T05:13:13;100007.50;;;21.50;76.49
62011;BME280;47967;51.756;10.174;2023-06-22T05:17:16;100004.25;;;21.58;76.44
62011;BME280;47967;51.756;10.174;2023-06-22T05:21:22;99996.59;;;21.65;76.41
62011;BME280;47967;51.756;10.174;2023-06-22T05:25:27;99995.84;;;21.80;75.90
62011;BME280;47967;51.756;10.174;2023-06-22T05:29:31;100006.84;;;21.80;75.56
62011;BME280;47967;51.756;10.174;2023-06-22T05:33:33;100002.16;;;21.86;75.06
62011;BME280;47967;51.756;10.174;2023-06-22T05:37:36;100001.09;;;21.92;75.11
62011;BME280;47967;51.756;10.174;2023-06-22T05:41:40;100002.78;;;22.09;74.52
62011;BME280;47967;51.756;10.174;2023-06-22T05:45:44;100007.19;;;22.15;74.41
62011;BME280;47967;51.756;10.174;2023-06-22T05:49:47;100009.47;;;22.44;72.65
62011;BME280;47967;51.756;10.174;2023-06-22T05:53:49;100016.66;;;22.70;72.41
62011;BME280;47967;51.756;10.174;2023-06-22T05:57:53;100010.31;;;22.65;72.79
62011;BME280;47967;51.756;10.174;2023-06-22T06:01:56;100024.91;;;22.70;72.24
62011;BME280;47967;51.756;10.174;2023-06-22T06:05:59;100022.66;;;22.98;71.76
62011;BME280;47967;51.756;10.174;2023-06-22T06:10:04;100021.88;;;22.93;72.34
62011;BME280;47967;51.756;10.174;2023-06-22T06:14:09;100016.88;;;23.10;70.99
62011;BME280;47967;51.756;10.174;2023-06-22T06:18:11;100016.63;;;23.01;71.04
62011;BME280;47967;51.756;10.174;2023-06-22T06:22:14;100015.53;;;23.18;70.36
62011;BME280;47967;51.756;10.174;2023-06-22T06:26:17;100018.72;;;23.56;68.63
62011;BME280;47967;51.756;10.174;2023-06-22T06:30:21;100021.91;;;23.89;68.16
62011;BME280;47967;51.756;10.174;2023-06-22T06:34:24;100021.41;;;24.32;65.85
62011;BME280;47967;51.756;10.174;2023-06-22T06:38:26;100012.00;;;24.78;64.75
62011;BME280;47967;51.756;10.174;2023-06-22T06:42:29;100009.75;;;24.80;65.28
62011;BME280;47967;51.756;10.174;2023-06-22T06:46:34;100004.69;;;25.17;64.21
62011;BME280;47967;51.756;10.174;2023-06-22T06:50:36;100016.66;;;25.36;63.13
62011;BME280;47967;51.756;10.174;2023-06-22T06:54:39;100007.50;;;25.41;63.47
62011;BME280;47967;51.756;10.174;2023-06-22T06:58:43;100005.25;;;25.92;62.24
62011;BME280;47967;51.756;10.174;2023-06-22T07:02:48;100001.25;;;26.22;61.57
62011;BME280;47967;51.756;10.174;2023-06-22T07:06:50;99998.53;;;25.98;63.17
62011;BME280;47967;51.756;10.174;2023-06-22T07:10:53;99992.56;;;26.10;62.76
62011;BME280;47967;51.756;10.174;2023-06-22T07:15:04;99991.25;;;25.83;62.51
62011;BME280;47967;51.756;10.174;2023-06-22T07:19:11;99991.44;;;25.92;63.99
62011;BME280;47967;51.756;10.174;2023-06-22T07:23:14;99989.44;;;26.68;61.94
62011;BME280;47967;51.756;10.174;2023-06-22T07:27:16;99984.75;;;27.16;60.30
62011;BME280;47967;51.756;10.174;2023-06-22T07:31:21;99993.59;;;27.74;59.58
62011;BME280;47967;51.756;10.174;2023-06-22T07:35:24;99991.34;;;28.26;57.71
62011;BME280;47967;51.756;10.174;2023-06-22T07:39:27;99990.59;;;28.35;57.99
62011;BME280;47967;51.756;10.174;2023-06-22T07:43:30;99989.06;;;28.97;56.28
62011;BME280;47967;51.756;10.174;2023-06-22T07:47:34;99982.47;;;29.55;54.61
62011;BME280;47967;51.756;10.174;2023-06-22T07:51:39;99983.28;;;29.24;55.34
62011;BME280;47967;51.756;10.174;2023-06-22T07:55:41;99968.47;;;28.98;55.85
62011;BME280;47967;51.756;10.174;2023-06-22T07:59:44;99973.34;;;28.92;56.29
62011;BME280;47967;51.756;10.174;2023-06-22T08:03:47;99970.63;;;29.01;56.60
62011;BME280;47967;51.756;10.174;2023-06-22T08:07:51;99969.19;;;29.12;56.47
62011;BME280;47967;51.756;10.174;2023-06-22T08:11:55;99961.34;;;29.54;55.88
62011;BME280;47967;51.756;10.174;2023-06-22T08:15:58;99967.69;;;30.13;54.26
62011;BME280;47967;51.756;10.174;2023-06-22T08:20:00;99962.75;;;30.36;53.16
62011;BME280;47967;51.756;10.174;2023-06-22T08:24:08;99971.44;;;30.61;52.46
62011;BME280;47967;51.756;10.174;2023-06-22T08:28:10;99960.91;;;30.75;52.82
62011;BME280;47967;51.756;10.174;2023-06-22T08:32:14;99970.94;;;31.24;51.69
62011;BME280;47967;51.756;10.174;2023-06-22T08:36:17;99972.22;;;31.56;51.44
62011;BME280;47967;51.756;10.174;2023-06-22T08:40:20;99965.19;;;32.31;49.10
62011;BME280;47967;51.756;10.174;2023-06-22T08:44:24;99976.47;;;32.14;49.02
62011;BME280;47967;51.756;10.174;2023-06-22T08:48:26;99968.66;;;32.07;47.23
62011;BME280;47967;51.756;10.174;2023-06-22T08:52:29;99952.91;;;32.02;46.83
62011;BME280;47967;51.756;10.174;2023-06-22T08:56:33;99944.00;;;32.30;44.41
62011;BME280;47967;51.756;10.174;2023-06-22T09:00:35;99925.72;;;32.12;47.07
62011;BME280;47967;51.756;10.174;2023-06-22T09:04:39;99925.88;;;31.94;45.98
62011;BME280;47967;51.756;10.174;2023-06-22T09:08:42;99928.75;;;31.85;46.10
62011;BME280;47967;51.756;10.174;2023-06-22T09:12:45;99924.88;;;31.77;47.01
62011;BME280;47967;51.756;10.174;2023-06-22T09:16:48;99929.50;;;31.73;46.54
62011;BME280;47967;51.756;10.174;2023-06-22T09:20:51;99932.75;;;31.75;46.77
62011;BME280;47967;51.756;10.174;2023-06-22T09:24:53;99925.13;;;32.06;46.51
62011;BME280;47967;51.756;10.174;2023-06-22T09:28:57;99917.91;;;32.26;47.09
62011;BME280;47967;51.756;10.174;2023-06-22T09:33:00;99906.56;;;31.68;47.05
62011;BME280;47967;51.756;10.174;2023-06-22T09:37:04;99900.09;;;31.97;47.48
62011;BME280;47967;51.756;10.174;2023-06-22T09:41:07;99896.59;;;32.00;46.47
62011;BME280;47967;51.756;10.174;2023-06-22T09:45:11;99882.16;;;31.98;46.33
62011;BME280;47967;51.756;10.174;2023-06-22T09:49:13;99881.97;;;32.03;45.59
62011;BME280;47967;51.756;10.174;2023-06-22T09:53:16;99889.31;;;32.29;45.90
62011;BME280;47967;51.756;10.174;2023-06-22T09:57:18;99876.78;;;32.48;44.58
62011;BME280;47967;51.756;10.174;2023-06-22T10:01:22;99879.06;;;32.33;42.81
62011;BME280;47967;51.756;10.174;2023-06-22T10:05:26;99871.22;;;32.14;43.54
62011;BME280;47967;51.756;10.174;2023-06-22T10:09:29;99866.72;;;32.22;43.46
62011;BME280;47967;51.756;10.174;2023-06-22T10:13:31;99870.22;;;31.98;43.07
62011;BME280;47967;51.756;10.174;2023-06-22T10:17:35;99863.41;;;32.20;43.18
62011;BME280;47967;51.756;10.174;2023-06-22T10:21:38;99869.34;;;32.18;43.55
62011;BME280;47967;51.756;10.174;2023-06-22T10:25:41;99865.75;;;32.64;41.17
62011;BME280;47967;51.756;10.174;2023-06-22T10:29:44;99862.28;;;32.67;42.42
62011;BME280;47967;51.756;10.174;2023-06-22T10:33:49;99857.88;;;32.91;41.09
62011;BME280;47967;51.756;10.174;2023-06-22T10:37:52;99848.56;;;33.11;40.79
62011;BME280;47967;51.756;10.174;2023-06-22T10:41:55;99845.63;;;33.20;40.18
62011;BME280;47967;51.756;10.174;2023-06-22T10:45:58;99842.69;;;33.29;40.26
62011;BME280;47967;51.756;10.174;2023-06-22T10:50:03;99837.97;;;33.04;41.31
62011;BME280;47967;51.756;10.174;2023-06-22T10:54:05;99834.50;;;33.61;40.92
62011;BME280;47967;51.756;10.174;2023-06-22T10:58:08;99821.06;;;34.23;39.27
62011;BME280;47967;51.756;10.174;2023-06-22T11:02:13;99814.31;;;34.56;39.46
62011;BME280;47967;51.756;10.174;2023-06-22T11:06:17;99824.88;;;35.47;37.80
62011;BME280;47967;51.756;10.174;2023-06-22T11:10:20;99824.22;;;35.93;36.47
62011;BME280;47967;51.756;10.174;2023-06-22T11:14:22;99813.56;;;35.43;36.74
62011;BME280;47967;51.756;10.174;2023-06-22T11:18:25;99811.34;;;35.17;37.66
62011;BME280;47967;51.756;10.174;2023-06-22T11:22:29;99806.72;;;35.24;38.01
62011;BME280;47967;51.756;10.174;2023-06-22T11:26:34;99803.50;;;35.81;37.71
62011;BME280;47967;51.756;10.174;2023-06-22T11:30:38;99788.84;;;35.13;39.08
62011;BME280;47967;51.756;10.174;2023-06-22T11:34:40;99773.63;;;35.14;39.30
62011;BME280;47967;51.756;10.174;2023-06-22T11:38:44;99772.91;;;35.17;38.54
62011;BME280;47967;51.756;10.174;2023-06-22T11:42:47;99769.88;;;35.06;39.51
62011;BME280;47967;51.756;10.174;2023-06-22T11:46:50;99754.06;;;34.46;41.00
62011;BME280;47967;51.756;10.174;2023-06-22T11:50:52;99745.16;;;34.28;42.22
62011;BME280;47967;51.756;10.174;2023-06-22T11:55:00;99752.13;;;34.03;42.46
62011;BME280;47967;51.756;10.174;2023-06-22T11:59:04;99722.34;;;33.38;43.39
62011;BME280;47967;51.756;10.174;2023-06-22T12:03:07;99721.19;;;33.39;43.66
62011;BME280;47967;51.756;10.174;2023-06-22T12:07:10;99711.75;;;33.59;43.29
62011;BME280;47967;51.756;10.174;2023-06-22T12:11:14;99703.97;;;34.13;42.56
62011;BME280;47967;51.756;10.174;2023-06-22T12:15:17;99709.72;;;34.68;41.38
62011;BME280;47967;51.756;10.174;2023-06-22T12:19:20;99708.72;;;33.64;42.20
62011;BME280;47967;51.756;10.174;2023-06-22T12:23:23;99696.84;;;33.99;41.52
62011;BME280;47967;51.756;10.174;2023-06-22T12:27:27;99693.94;;;33.96;41.04
62011;BME280;47967;51.756;10.174;2023-06-22T12:31:31;99682.00;;;33.67;41.57
62011;BME280;47967;51.756;10.174;2023-06-22T12:35:34;99682.72;;;34.60;40.98
62011;BME280;47967;51.756;10.174;2023-06-22T12:39:37;99689.16;;;35.35;40.59
62011;BME280;47967;51.756;10.174;2023-06-22T12:43:40;99680.44;;;35.83;36.70
62011;BME280;47967;51.756;10.174;2023-06-22T12:47:43;99667.28;;;35.45;35.67
62011;BME280;47967;51.756;10.174;2023-06-22T12:51:46;99655.81;;;35.34;36.15
62011;BME280;47967;51.756;10.174;2023-06-22T12:55:48;99645.75;;;35.29;36.81
62011;BME280;47967;51.756;10.174;2023-06-22T12:59:52;99633.78;;;35.32;36.11
62011;BME280;47967;51.756;10.174;2023-06-22T13:03:55;99629.03;;;35.36;35.52
62011;BME280;47967;51.756;10.174;2023-06-22T13:07:58;99619.66;;;35.95;35.35
62011;BME280;47967;51.756;10.174;2023-06-22T13:12:00;99624.31;;;36.37;34.71
62011;BME280;47967;51.756;10.174;2023-06-22T13:16:04;99629.13;;;36.36;35.09
62011;BME280;47967;51.756;10.174;2023-06-22T13:20:07;99634.81;;;35.90;34.54
62011;BME280;47967;51.756;10.174;2023-06-22T13:24:10;99636.19;;;36.27;35.06
62011;BME280;47967;51.756;10.174;2023-06-22T13:28:13;99623.63;;;36.17;35.42
62011;BME280;47967;51.756;10.174;2023-06-22T13:32:30;99608.03;;;36.19;35.18
62011;BME280;47967;51.756;10.174;2023-06-22T13:36:33;99605.75;;;35.79;35.22
62011;BME280;47967;51.756;10.174;2023-06-22T13:40:35;99580.97;;;36.08;36.27
62011;BME280;47967;51.756;10.174;2023-06-22T13:44:39;99577.50;;;36.18;36.49
62011;BME280;47967;51.756;10.174;2023-06-22T13:48:43;99572.34;;;36.50;36.11
62011;BME280;47967;51.756;10.174;2023-06-22T13:52:45;99568.81;;;36.57;36.08
62011;BME280;47967;51.756;10.174;2023-06-22T13:56:48;99561.69;;;36.67;36.22
62011;BME280;47967;51.756;10.174;2023-06-22T14:00:50;99551.41;;;36.78;36.35
62011;BME280;47967;51.756;10.174;2023-06-22T14:04:57;99547.06;;;36.50;34.74
62011;BME280;47967;51.756;10.174;2023-06-22T14:09:00;99544.44;;;36.65;34.91
62011;BME280;47967;51.756;10.174;2023-06-22T14:13:02;99538.69;;;36.54;35.11
62011;BME280;47967;51.756;10.174;2023-06-22T14:17:07;99512.84;;;36.14;36.21
62011;BME280;47967;51.756;10.174;2023-06-22T14:21:11;99474.03;;;36.24;36.70
62011;BME280;47967;51.756;10.174;2023-06-22T14:25:13;99437.88;;;36.87;36.57
62011;BME280;47967;51.756;10.174;2023-06-22T14:29:16;99435.94;;;36.98;37.10
62011;BME280;47967;51.756;10.174;2023-06-22T14:33:18;99443.69;;;36.36;37.10
62011;BME280;47967;51.756;10.174;2023-06-22T14:37:22;99438.53;;;36.08;37.00
62011;BME280;47967;51.756;10.174;2023-06-22T14:41:25;99421.88;;;35.92;38.40
62011;BME280;47967;51.756;10.174;2023-06-22T14:45:27;99427.38;;;35.31;38.91
62011;BME280;47967;51.756;10.174;2023-06-22T14:49:30;99404.56;;;34.86;38.41
62011;BME280;47967;51.756;10.174;2023-06-22T14:53:34;99405.94;;;34.10;38.74
62011;BME280;47967;51.756;10.174;2023-06-22T14:57:36;99407.59;;;33.76;39.21
62011;BME280;47967;51.756;10.174;2023-06-22T15:01:39;99399.72;;;33.46;39.51
62011;BME280;47967;51.756;10.174;2023-06-22T15:05:45;99419.22;;;33.10;39.91
62011;BME280;47967;51.756;10.174;2023-06-22T15:09:49;99431.56;;;32.93;40.64
62011;BME280;47967;51.756;10.174;2023-06-22T15:13:52;99412.97;;;32.40;40.88
62011;BME280;47967;51.756;10.174;2023-06-22T15:17:54;99418.19;;;32.14;41.55
62011;BME280;47967;51.756;10.174;2023-06-22T15:21:57;99391.22;;;31.77;41.91
62011;BME280;47967;51.756;10.174;2023-06-22T15:26:02;99368.34;;;31.71;42.30
62011;BME280;47967;51.756;10.174;2023-06-22T15:30:07;99357.22;;;31.34;42.58
62011;BME280;47967;51.756;10.174;2023-06-22T15:34:12;99365.69;;;31.38;43.17
62011;BME280;47967;51.756;10.174;2023-06-22T15:38:15;99392.09;;;31.16;43.58
62011;BME280;47967;51.756;10.174;2023-06-22T15:42:19;99481.75;;;31.30;43.49
62011;BME280;47967;51.756;10.174;2023-06-22T15:46:21;99585.28;;;29.28;47.68
62011;BME280;47967;51.756;10.174;2023-06-22T15:50:24;99576.97;;;26.23;58.24
62011;BME280;47967;51.756;10.174;2023-06-22T15:54:27;99596.25;;;21.47;75.05
62011;BME280;47967;51.756;10.174;2023-06-22T15:58:30;99551.94;;;19.98;85.09
62011;BME280;47967;51.756;10.174;2023-06-22T16:02:33;99526.22;;;19.99;87.56
62011;BME280;47967;51.756;10.174;2023-06-22T16:06:36;99527.59;;;20.12;87.92
62011;BME280;47967;51.756;10.174;2023-06-22T16:10:39;99574.31;;;20.69;88.10
62011;BME280;47967;51.756;10.174;2023-06-22T16:14:43;99628.88;;;20.71;87.06
62011;BME280;47967;51.756;10.174;2023-06-22T16:18:46;99569.97;;;20.84;86.82
62011;BME280;47967;51.756;10.174;2023-06-22T16:22:51;99524.19;;;21.00;85.15
62011;BME280;47967;51.756;10.174;2023-06-22T16:26:54;99499.75;;;21.08;85.30
62011;BME280;47967;51.756;10.174;2023-06-22T16:30:57;99494.22;;;21.19;85.65
62011;BME280;47967;51.756;10.174;2023-06-22T16:35:00;99474.69;;;21.41;84.24
62011;BME280;47967;51.756;10.174;2023-06-22T16:39:03;99487.00;;;21.64;84.46
62011;BME280;47967;51.756;10.174;2023-06-22T16:43:06;99437.06;;;21.47;83.19
62011;BME280;47967;51.756;10.174;2023-06-22T16:47:09;99404.06;;;20.71;84.72
62011;BME280;47967;51.756;10.174;2023-06-22T16:51:12;99374.19;;;20.64;86.63
62011;BME280;47967;51.756;10.174;2023-06-22T16:55:15;99321.28;;;20.63;87.05
62011;BME280;47967;51.756;10.174;2023-06-22T16:59:17;99294.16;;;20.62;87.07
62011;BME280;47967;51.756;10.174;2023-06-22T17:03:25;99318.22;;;20.91;87.17
62011;BME280;47967;51.756;10.174;2023-06-22T17:07:30;99342.88;;;21.01;85.40
62011;BME280;47967;51.756;10.174;2023-06-22T17:11:35;99350.03;;;20.97;84.63
62011;BME280;47967;51.756;10.174;2023-06-22T17:15:39;99369.22;;;20.92;84.55
62011;BME280;47967;51.756;10.174;2023-06-22T17:19:44;99422.91;;;21.14;84.64
62011;BME280;47967;51.756;10.174;2023-06-22T17:23:47;99394.34;;;21.30;83.51
62011;BME280;47967;51.756;10.174;2023-06-22T17:27:50;99395.59;;;21.53;83.94
62011;BME280;47967;51.756;10.174;2023-06-22T17:31:55;99376.91;;;21.66;83.49
62011;BME280;47967;51.756;10.174;2023-06-22T17:36:02;99358.34;;;21.37;83.55
62011;BME280;47967;51.756;10.174;2023-06-22T17:40:13;99359.31;;;21.06;84.31
62011;BME280;47967;51.756;10.174;2023-06-22T17:44:18;99335.16;;;21.08;84.38
62011;BME280;47967;51.756;10.174;2023-06-22T17:48:21;99332.59;;;21.27;83.84
62011;BME280;47967;51.756;10.174;2023-06-22T17:52:26;99370.50;;;21.20;84.29
62011;BME280;47967;51.756;10.174;2023-06-22T17:56:29;99384.13;;;21.36;84.68
62011;BME280;47967;51.756;10.174;2023-06-22T18:00:32;99399.22;;;21.43;84.52
62011;BME280;47967;51.756;10.174;2023-06-22T18:04:34;99400.97;;;21.14;84.84
62011;BME280;47967;51.756;10.174;2023-06-22T18:08:38;99403.22;;;20.96;85.18
62011;BME280;47967;51.756;10.174;2023-06-22T18:12:43;99398.06;;;20.53;88.13
62011;BME280;47967;51.756;10.174;2023-06-22T18:16:48;99387.94;;;20.28;91.41
62011;BME280;47967;51.756;10.174;2023-06-22T18:20:51;99358.59;;;20.44;91.59
62011;BME280;47967;51.756;10.174;2023-06-22T18:24:55;99313.69;;;20.40;91.18
62011;BME280;47967;51.756;10.174;2023-06-22T18:28:58;99287.03;;;20.51;90.08
62011;BME280;47967;51.756;10.174;2023-06-22T18:33:00;99276.91;;;20.72;88.97
62011;BME280;47967;51.756;10.174;2023-06-22T18:37:06;99271.81;;;21.05;87.04
62011;BME280;47967;51.756;10.174;2023-06-22T18:41:32;99248.91;;;21.25;84.64
62011;BME280;47967;51.756;10.174;2023-06-22T18:45:35;99317.75;;;21.34;84.59
62011;BME280;47967;51.756;10.174;2023-06-22T18:49:48;99398.44;;;21.27;84.85
62011;BME280;47967;51.756;10.174;2023-06-22T18:54:02;99505.78;;;20.79;89.47
62011;BME280;47967;51.756;10.174;2023-06-22T18:58:16;99614.09;;;20.82;92.29
62011;BME280;47967;51.756;10.174;2023-06-22T19:02:34;99544.84;;;20.08;97.14
62011;BME280;47967;51.756;10.174;2023-06-22T19:06:56;99506.53;;;19.49;100.00
62011;BME280;47967;51.756;10.174;2023-06-22T19:11:10;99471.66;;;23.12;100.00
62011;BME280;47967;51.756;10.174;2023-06-22T19:15:15;99285.22;;;28.59;79.66
62011;BME280;47967;51.756;10.174;2023-06-22T19:19:18;99272.03;;;37.78;60.13
62011;BME280;47967;51.756;10.174;2023-06-22T19:23:24;99252.66;;;58.62;46.25
62011;BME280;47967;51.756;10.174;2023-06-22T19:27:30;99304.91;;;63.00;48.83
62011;BME280;47967;51.756;10.174;2023-06-22T19:31:35;99336.75;;;63.03;48.48
62011;BME280;47967;51.756;10.174;2023-06-22T19:35:38;99343.78;;;61.85;50.31
62011;BME280;47967;51.756;10.174;2023-06-22T19:39:41;99301.41;;;60.32;50.54
62011;BME280;47967;51.756;10.174;2023-06-22T19:43:47;99274.56;;;56.21;51.93
62011;BME280;47967;51.756;10.174;2023-06-22T19:47:51;99273.22;;;53.88;51.40
62011;BME280;47967;51.756;10.174;2023-06-22T19:51:54;99287.47;;;50.80;53.00
62011;BME280;47967;51.756;10.174;2023-06-22T19:55:57;99291.78;;;48.26;52.60
62011;BME280;47967;51.756;10.174;2023-06-22T19:59:59;99284.25;;;48.79;51.38
62011;BME280;47967;51.756;10.174;2023-06-22T20:04:12;99267.44;;;45.92;53.59
62011;BME280;47967;51.756;10.174;2023-06-22T20:08:15;99243.31;;;43.83;54.21
62011;BME280;47967;51.756;10.174;2023-06-22T20:12:22;99248.06;;;45.61;52.57
62011;BME280;47967;51.756;10.174;2023-06-22T20:16:26;99241.84;;;44.28;51.35
62011;BME280;47967;51.756;10.174;2023-06-22T20:20:31;99236.53;;;43.97;50.60
62011;BME280;47967;51.756;10.174;2023-06-22T20:24:36;99252.09;;;46.02;42.84
62011;BME280;47967;51.756;10.174;2023-06-22T20:28:39;99254.44;;;47.57;40.03
62011;BME280;47967;51.756;10.174;2023-06-22T20:32:49;99251.31;;;47.74;39.57
62011;BME280;47967;51.756;10.174;2023-06-22T20:36:53;99259.84;;;47.87;38.55
62011;BME280;47967;51.756;10.174;2023-06-22T20:40:55;99256.28;;;47.83;38.18
62011;BME280;47967;51.756;10.174;2023-06-22T20:44:58;99253.81;;;47.63;37.62
62011;BME280;47967;51.756;10.174;2023-06-22T20:49:01;99227.56;;;47.55;37.87
62011;BME280;47967;51.756;10.174;2023-06-22T20:53:06;99217.06;;;47.83;37.39
62011;BME280;47967;51.756;10.174;2023-06-22T20:57:09;99217.44;;;47.63;36.64
